sensor_id;sensor_type;location;lat;lon;timestamp;P1;durP1;ratioP1;P2;durP2;ratioP2
485;SDS011;229;48.734;9.340;2023-02-01T00:01:55;4.85;;;4.20;;
485;SDS011;229;48.734;9.340;2023-02-01T00:04:22;6.32;;;4.60;;
485;SDS011;229;48.734;9.340;2023-02-01T00:06:50;5.45;;;4.40;;
485;SDS011;229;48.734;9.340;2023-02-01T00:09:17;6.18;;;4.80;;
485;SDS011;229;48.734;9.340;2023-02-01T00:11:44;5.38;;;4.43;;
485;SDS011;229;48.734;9.340;2023-02-01T00:14:11;8.40;;;4.70;;
485;SDS011;229;48.734;9.340;2023-02-01T00:16:39;5.07;;;4.80;;
485;SDS011;229;48.734;9.340;2023-02-01T00:19:09;4.95;;;3.85;;
485;SDS011;229;48.734;9.340;2023-02-01T00:21:36;6.28;;;4.88;;
485;SDS011;229;48.734;9.340;2023-02-01T00:24:04;6.05;;;4.90;;
485;SDS011;229;48.734;9.340;2023-02-01T00:26:32;5.55;;;4.40;;
485;SDS011;229;48.734;9.340;2023-02-01T00:29:00;4.03;;;3.63;;
485;SDS011;229;48.734;9.340;2023-02-01T00:31:27;4.68;;;4.05;;
485;SDS011;229;48.734;9.340;2023-02-01T00:33:55;4.38;;;3.85;;
485;SDS011;229;48.734;9.340;2023-02-01T00:36:23;5.90;;;4.75;;
485;SDS011;229;48.734;9.340;2023-02-01T00:38:50;3.53;;;3.22;;
485;SDS011;229;48.734;9.340;2023-02-01T00:41:19;4.53;;;3.90;;
485;SDS011;229;48.734;9.340;2023-02-01T00:43:47;4.55;;;3.72;;
485;SDS011;229;48.734;9.340;2023-02-01T00:46:15;6.07;;;4.00;;
485;SDS011;229;48.734;9.340;2023-02-01T00:48:42;4.45;;;4.03;;
485;SDS011;229;48.734;9.340;2023-02-01T00:51:11;4.35;;;3.70;;
485;SDS011;229;48.734;9.340;2023-02-01T00:53:39;4.93;;;3.78;;
485;SDS011;229;48.734;9.340;2023-02-01T00:56:07;4.05;;;3.75;;
485;SDS011;229;48.734;9.340;2023-02-01T00:58:34;4.60;;;3.40;;
485;SDS011;229;48.734;9.340;2023-02-01T01:01:02;3.72;;;3.30;;
485;SDS011;229;48.734;9.340;2023-02-01T01:03:30;3.88;;;3.40;;
485;SDS011;229;48.734;9.340;2023-02-01T01:05:59;3.50;;;3.30;;
485;SDS011;229;48.734;9.340;2023-02-01T01:08:26;4.03;;;3.53;;
485;SDS011;229;48.734;9.340;2023-02-01T01:10:55;3.20;;;2.83;;
485;SDS011;229;48.734;9.340;2023-02-01T01:13:22;5.50;;;3.97;;
485;SDS011;229;48.734;9.340;2023-02-01T01:15:49;4.50;;;3.50;;
485;SDS011;229;48.734;9.340;2023-02-01T01:18:17;4.80;;;3.20;;
485;SDS011;229;48.734;9.340;2023-02-01T01:20:44;4.25;;;3.38;;
485;SDS011;229;48.734;9.340;2023-02-01T01:23:11;4.95;;;3.55;;
485;SDS011;229;48.734;9.340;2023-02-01T01:25:38;3.70;;;3.40;;
485;SDS011;229;48.734;9.340;2023-02-01T01:28:07;4.22;;;3.53;;
485;SDS011;229;48.734;9.340;2023-02-01T01:30:34;3.53;;;3.10;;
485;SDS011;229;48.734;9.340;2023-02-01T01:33:02;2.78;;;2.58;;
485;SDS011;229;48.734;9.340;2023-02-01T01:35:29;4.63;;;3.35;;
485;SDS011;229;48.734;9.340;2023-02-01T01:37:57;4.00;;;3.50;;
485;SDS011;229;48.734;9.340;2023-02-01T01:40:24;4.47;;;3.45;;
485;SDS011;229;48.734;9.340;2023-02-01T01:42:52;3.60;;;3.20;;
485;SDS011;229;48.734;9.340;2023-02-01T01:45:22;3.83;;;3.50;;
485;SDS011;229;48.734;9.340;2023-02-01T01:47:50;3.70;;;3.10;;
485;SDS011;229;48.734;9.340;2023-02-01T01:50:20;4.18;;;3.78;;
485;SDS011;229;48.734;9.340;2023-02-01T01:52:49;3.28;;;3.10;;
485;SDS011;229;48.734;9.340;2023-02-01T01:55:18;4.20;;;4.00;;
485;SDS011;229;48.734;9.340;2023-02-01T01:57:46;3.92;;;3.50;;
485;SDS011;229;48.734;9.340;2023-02-01T02:00:17;6.00;;;4.10;;
485;SDS011;229;48.734;9.340;2023-02-01T02:02:46;4.88;;;3.40;;
485;SDS011;229;48.734;9.340;2023-02-01T02:05:14;5.47;;;3.70;;
485;SDS011;229;48.734;9.340;2023-02-01T02:07:43;4.20;;;3.35;;
485;SDS011;229;48.734;9.340;2023-02-01T02:10:12;3.42;;;3.28;;
485;SDS011;229;48.734;9.340;2023-02-01T02:12:40;3.78;;;3.38;;
485;SDS011;229;48.734;9.340;2023-02-01T02:15:08;3.80;;;3.38;;
485;SDS011;229;48.734;9.340;2023-02-01T02:17:36;5.72;;;3.47;;
485;SDS011;229;48.734;9.340;2023-02-01T02:23:01;3.85;;;3.13;;
485;SDS011;229;48.734;9.340;2023-02-01T02:25:43;4.78;;;3.80;;
485;SDS011;229;48.734;9.340;2023-02-01T02:28:18;3.30;;;3.10;;
485;SDS011;229;48.734;9.340;2023-02-01T02:30:56;3.42;;;3.15;;
485;SDS011;229;48.734;9.340;2023-02-01T02:33:41;3.67;;;3.40;;
485;SDS011;229;48.734;9.340;2023-02-01T02:36:13;4.85;;;3.47;;
485;SDS011;229;48.734;9.340;2023-02-01T02:38:45;4.05;;;3.10;;
485;SDS011;229;48.734;9.340;2023-02-01T02:41:14;3.50;;;3.20;;
485;SDS011;229;48.734;9.340;2023-02-01T02:44:06;3.97;;;3.08;;
485;SDS011;229;48.734;9.340;2023-02-01T02:46:53;3.53;;;3.30;;
485;SDS011;229;48.734;9.340;2023-02-01T02:49:44;4.35;;;3.38;;
485;SDS011;229;48.734;9.340;2023-02-01T02:52:37;3.42;;;3.13;;
485;SDS011;229;48.734;9.340;2023-02-01T02:55:25;4.60;;;3.42;;
485;SDS011;229;48.734;9.340;2023-02-01T02:57:53;3.25;;;3.10;;
485;SDS011;229;48.734;9.340;2023-02-01T03:00:39;3.60;;;3.33;;
485;SDS011;229;48.734;9.340;2023-02-01T03:03:24;3.10;;;2.92;;
485;SDS011;229;48.734;9.340;2023-02-01T03:06:12;3.30;;;3.15;;
485;SDS011;229;48.734;9.340;2023-02-01T03:08:41;4.97;;;3.72;;
485;SDS011;229;48.734;9.340;2023-02-01T03:11:10;3.53;;;3.40;;
485;SDS011;229;48.734;9.340;2023-02-01T03:13:41;4.47;;;3.58;;
485;SDS011;229;48.734;9.340;2023-02-01T03:16:10;3.83;;;3.65;;
485;SDS011;229;48.734;9.340;2023-02-01T03:18:41;6.78;;;3.75;;
485;SDS011;229;48.734;9.340;2023-02-01T03:21:13;4.80;;;3.78;;
485;SDS011;229;48.734;9.340;2023-02-01T03:23:44;4.40;;;4.10;;
485;SDS011;229;48.734;9.340;2023-02-01T03:26:13;4.55;;;4.22;;
485;SDS011;229;48.734;9.340;2023-02-01T03:28:42;4.70;;;4.35;;
485;SDS011;229;48.734;9.340;2023-02-01T03:31:10;7.55;;;4.68;;
485;SDS011;229;48.734;9.340;2023-02-01T03:33:39;5.65;;;3.95;;
485;SDS011;229;48.734;9.340;2023-02-01T03:36:09;4.65;;;3.92;;
485;SDS011;229;48.734;9.340;2023-02-01T03:38:40;5.40;;;3.95;;
485;SDS011;229;48.734;9.340;2023-02-01T03:41:14;4.43;;;3.83;;
485;SDS011;229;48.734;9.340;2023-02-01T03:43:47;4.00;;;3.72;;
485;SDS011;229;48.734;9.340;2023-02-01T03:46:18;7.55;;;3.80;;
485;SDS011;229;48.734;9.340;2023-02-01T03:48:48;4.95;;;4.13;;
485;SDS011;229;48.734;9.340;2023-02-01T03:51:15;4.50;;;3.47;;
485;SDS011;229;48.734;9.340;2023-02-01T03:53:43;4.45;;;3.53;;
485;SDS011;229;48.734;9.340;2023-02-01T03:56:13;3.53;;;3.35;;
485;SDS011;229;48.734;9.340;2023-02-01T03:58:41;4.00;;;3.75;;
485;SDS011;229;48.734;9.340;2023-02-01T04:01:22;3.85;;;3.05;;
485;SDS011;229;48.734;9.340;2023-02-01T04:03:49;4.18;;;3.55;;
485;SDS011;229;48.734;9.340;2023-02-01T04:06:17;4.25;;;3.85;;
485;SDS011;229;48.734;9.340;2023-02-01T04:08:44;4.00;;;3.42;;
485;SDS011;229;48.734;9.340;2023-02-01T04:11:11;4.43;;;3.47;;
485;SDS011;229;48.734;9.340;2023-02-01T04:13:40;4.95;;;3.50;;
485;SDS011;229;48.734;9.340;2023-02-01T04:16:07;5.07;;;3.85;;
485;SDS011;229;48.734;9.340;2023-02-01T04:18:34;4.10;;;3.58;;
485;SDS011;229;48.734;9.340;2023-02-01T04:21:01;4.03;;;3.40;;
485;SDS011;229;48.734;9.340;2023-02-01T04:23:28;4.63;;;3.67;;
485;SDS011;229;48.734;9.340;2023-02-01T04:25:58;3.47;;;3.28;;
485;SDS011;229;48.734;9.340;2023-02-01T04:28:26;4.30;;;3.60;;
485;SDS011;229;48.734;9.340;2023-02-01T04:30:55;4.07;;;3.88;;
485;SDS011;229;48.734;9.340;2023-02-01T04:33:22;4.03;;;3.50;;
485;SDS011;229;48.734;9.340;2023-02-01T04:35:49;4.40;;;4.10;;
485;SDS011;229;48.734;9.340;2023-02-01T04:38:16;5.32;;;4.25;;
485;SDS011;229;48.734;9.340;2023-02-01T04:40:45;3.60;;;3.50;;
485;SDS011;229;48.734;9.340;2023-02-01T04:43:13;5.20;;;3.85;;
485;SDS011;229;48.734;9.340;2023-02-01T04:45:40;4.88;;;3.85;;
485;SDS011;229;48.734;9.340;2023-02-01T04:48:09;4.80;;;4.28;;
485;SDS011;229;48.734;9.340;2023-02-01T04:50:36;3.42;;;3.22;;
485;SDS011;229;48.734;9.340;2023-02-01T04:53:03;5.10;;;3.33;;
485;SDS011;229;48.734;9.340;2023-02-01T04:55:30;5.63;;;3.97;;
485;SDS011;229;48.734;9.340;2023-02-01T04:57:57;4.50;;;3.88;;
485;SDS011;229;48.734;9.340;2023-02-01T05:00:24;3.45;;;3.28;;
485;SDS011;229;48.734;9.340;2023-02-01T05:02:52;5.30;;;3.75;;
485;SDS011;229;48.734;9.340;2023-02-01T05:05:20;4.15;;;3.53;;
485;SDS011;229;48.734;9.340;2023-02-01T05:07:47;4.88;;;4.40;;
485;SDS011;229;48.734;9.340;2023-02-01T05:10:15;4.97;;;4.20;;
485;SDS011;229;48.734;9.340;2023-02-01T05:12:42;5.25;;;3.65;;
485;SDS011;229;48.734;9.340;2023-02-01T05:15:27;4.00;;;3.47;;
485;SDS011;229;48.734;9.340;2023-02-01T05:17:55;4.03;;;3.70;;
485;SDS011;229;48.734;9.340;2023-02-01T05:20:23;4.30;;;3.28;;
485;SDS011;229;48.734;9.340;2023-02-01T05:22:51;3.88;;;3.50;;
485;SDS011;229;48.734;9.340;2023-02-01T05:25:18;5.82;;;3.28;;
485;SDS011;229;48.734;9.340;2023-02-01T05:27:45;4.38;;;3.75;;
485;SDS011;229;48.734;9.340;2023-02-01T05:30:12;4.43;;;3.65;;
485;SDS011;229;48.734;9.340;2023-02-01T05:32:40;4.82;;;3.47;;
485;SDS011;229;48.734;9.340;2023-02-01T05:35:07;5.80;;;4.05;;
485;SDS011;229;48.734;9.340;2023-02-01T05:37:36;6.38;;;5.40;;
485;SDS011;229;48.734;9.340;2023-02-01T05:40:03;4.03;;;3.33;;
485;SDS011;229;48.734;9.340;2023-02-01T05:42:31;5.78;;;3.65;;
485;SDS011;229;48.734;9.340;2023-02-01T05:44:58;3.35;;;2.80;;
485;SDS011;229;48.734;9.340;2023-02-01T05:47:25;4.30;;;3.30;;
485;SDS011;229;48.734;9.340;2023-02-01T05:49:52;4.00;;;3.15;;
485;SDS011;229;48.734;9.340;2023-02-01T05:52:19;4.50;;;3.70;;
485;SDS011;229;48.734;9.340;2023-02-01T05:54:48;3.42;;;3.00;;
485;SDS011;229;48.734;9.340;2023-02-01T05:57:15;4.20;;;3.63;;
485;SDS011;229;48.734;9.340;2023-02-01T05:59:42;3.38;;;3.00;;
485;SDS011;229;48.734;9.340;2023-02-01T06:02:10;4.97;;;4.07;;
485;SDS011;229;48.734;9.340;2023-02-01T06:04:37;4.03;;;3.65;;
485;SDS011;229;48.734;9.340;2023-02-01T06:07:05;6.07;;;3.92;;
485;SDS011;229;48.734;9.340;2023-02-01T06:09:32;4.70;;;3.60;;
485;SDS011;229;48.734;9.340;2023-02-01T06:12:01;5.40;;;3.80;;
485;SDS011;229;48.734;9.340;2023-02-01T06:14:28;5.50;;;3.65;;
485;SDS011;229;48.734;9.340;2023-02-01T06:16:56;5.07;;;3.80;;
485;SDS011;229;48.734;9.340;2023-02-01T06:19:23;3.92;;;3.65;;
485;SDS011;229;48.734;9.340;2023-02-01T06:21:51;5.00;;;3.67;;
485;SDS011;229;48.734;9.340;2023-02-01T06:24:18;4.90;;;4.10;;
485;SDS011;229;48.734;9.340;2023-02-01T06:26:45;8.15;;;6.00;;
485;SDS011;229;48.734;9.340;2023-02-01T06:29:14;5.78;;;3.88;;
485;SDS011;229;48.734;9.340;2023-02-01T06:31:41;4.03;;;3.70;;
485;SDS011;229;48.734;9.340;2023-02-01T06:34:08;4.95;;;4.40;;
485;SDS011;229;48.734;9.340;2023-02-01T06:36:36;7.20;;;4.75;;
485;SDS011;229;48.734;9.340;2023-02-01T06:39:03;5.55;;;4.65;;
485;SDS011;229;48.734;9.340;2023-02-01T06:41:30;4.47;;;4.18;;
485;SDS011;229;48.734;9.340;2023-02-01T06:43:59;5.28;;;4.57;;
485;SDS011;229;48.734;9.340;2023-02-01T06:46:28;6.55;;;5.03;;
485;SDS011;229;48.734;9.340;2023-02-01T06:48:55;5.25;;;4.50;;
485;SDS011;229;48.734;9.340;2023-02-01T06:51:23;6.05;;;4.85;;
485;SDS011;229;48.734;9.340;2023-02-01T06:53:50;7.47;;;4.75;;
485;SDS011;229;48.734;9.340;2023-02-01T06:56:17;4.88;;;4.60;;
485;SDS011;229;48.734;9.340;2023-02-01T06:58:45;10.00;;;5.50;;
485;SDS011;229;48.734;9.340;2023-02-01T07:01:12;6.28;;;4.88;;
485;SDS011;229;48.734;9.340;2023-02-01T07:03:41;4.53;;;4.18;;
485;SDS011;229;48.734;9.340;2023-02-01T07:06:09;4.60;;;4.20;;
485;SDS011;229;48.734;9.340;2023-02-01T07:08:37;4.43;;;4.13;;
485;SDS011;229;48.734;9.340;2023-02-01T07:11:04;6.53;;;4.40;;
485;SDS011;229;48.734;9.340;2023-02-01T07:13:32;5.78;;;5.13;;
485;SDS011;229;48.734;9.340;2023-02-01T07:15:59;7.63;;;5.00;;
485;SDS011;229;48.734;9.340;2023-02-01T07:18:27;6.43;;;4.82;;
485;SDS011;229;48.734;9.340;2023-02-01T07:20:56;5.10;;;4.80;;
485;SDS011;229;48.734;9.340;2023-02-01T07:23:25;5.25;;;4.80;;
485;SDS011;229;48.734;9.340;2023-02-01T07:25:53;6.10;;;5.28;;
485;SDS011;229;48.734;9.340;2023-02-01T07:28:20;4.65;;;4.15;;
485;SDS011;229;48.734;9.340;2023-02-01T07:30:47;6.22;;;5.00;;
485;SDS011;229;48.734;9.340;2023-02-01T07:33:16;5.10;;;3.65;;
485;SDS011;229;48.734;9.340;2023-02-01T07:35:43;5.88;;;4.75;;
485;SDS011;229;48.734;9.340;2023-02-01T07:38:12;4.88;;;4.60;;
485;SDS011;229;48.734;9.340;2023-02-01T07:40:39;8.50;;;4.80;;
485;SDS011;229;48.734;9.340;2023-02-01T07:43:06;5.70;;;4.93;;
485;SDS011;229;48.734;9.340;2023-02-01T07:45:34;4.90;;;4.60;;
485;SDS011;229;48.734;9.340;2023-02-01T07:48:01;5.00;;;4.43;;
485;SDS011;229;48.734;9.340;2023-02-01T07:50:29;6.38;;;4.50;;
485;SDS011;229;48.734;9.340;2023-02-01T07:52:57;4.25;;;4.03;;
485;SDS011;229;48.734;9.340;2023-02-01T07:55:27;5.13;;;4.07;;
485;SDS011;229;48.734;9.340;2023-02-01T07:57:56;5.65;;;4.65;;
485;SDS011;229;48.734;9.340;2023-02-01T08:00:23;6.35;;;4.22;;
485;SDS011;229;48.734;9.340;2023-02-01T08:03:09;5.55;;;4.68;;
485;SDS011;229;48.734;9.340;2023-02-01T08:05:54;4.35;;;3.88;;
485;SDS011;229;48.734;9.340;2023-02-01T08:08:22;4.93;;;4.32;;
485;SDS011;229;48.734;9.340;2023-02-01T08:10:50;5.72;;;4.30;;
485;SDS011;229;48.734;9.340;2023-02-01T08:13:19;4.40;;;4.10;;
485;SDS011;229;48.734;9.340;2023-02-01T08:15:46;4.88;;;4.47;;
485;SDS011;229;48.734;9.340;2023-02-01T08:18:13;5.13;;;3.70;;
485;SDS011;229;48.734;9.340;2023-02-01T08:20:42;4.38;;;4.07;;
485;SDS011;229;48.734;9.340;2023-02-01T08:23:10;7.40;;;4.40;;
485;SDS011;229;48.734;9.340;2023-02-01T08:25:37;4.22;;;4.00;;
485;SDS011;229;48.734;9.340;2023-02-01T08:28:06;4.47;;;4.18;;
485;SDS011;229;48.734;9.340;2023-02-01T08:30:33;4.57;;;4.28;;
485;SDS011;229;48.734;9.340;2023-02-01T08:33:01;4.72;;;4.18;;
485;SDS011;229;48.734;9.340;2023-02-01T08:35:28;5.40;;;4.10;;
485;SDS011;229;48.734;9.340;2023-02-01T08:37:55;4.15;;;3.92;;
485;SDS011;229;48.734;9.340;2023-02-01T08:40:22;4.57;;;4.30;;
485;SDS011;229;48.734;9.340;2023-02-01T08:42:49;4.68;;;3.90;;
485;SDS011;229;48.734;9.340;2023-02-01T08:45:18;3.95;;;3.75;;
485;SDS011;229;48.734;9.340;2023-02-01T08:47:45;5.28;;;4.32;;
485;SDS011;229;48.734;9.340;2023-02-01T08:50:13;4.45;;;4.15;;
485;SDS011;229;48.734;9.340;2023-02-01T08:52:40;7.57;;;5.00;;
485;SDS011;229;48.734;9.340;2023-02-01T08:55:08;12.80;;;4.68;;
485;SDS011;229;48.734;9.340;2023-02-01T08:57:35;5.70;;;5.20;;
485;SDS011;229;48.734;9.340;2023-02-01T09:00:02;5.55;;;4.82;;
485;SDS011;229;48.734;9.340;2023-02-01T09:02:31;4.50;;;4.20;;
485;SDS011;229;48.734;9.340;2023-02-01T09:04:58;7.80;;;4.30;;
485;SDS011;229;48.734;9.340;2023-02-01T09:07:25;5.13;;;4.63;;
485;SDS011;229;48.734;9.340;2023-02-01T09:09:52;4.70;;;4.40;;
485;SDS011;229;48.734;9.340;2023-02-01T09:12:21;5.30;;;5.00;;
485;SDS011;229;48.734;9.340;2023-02-01T09:14:48;6.53;;;4.78;;
485;SDS011;229;48.734;9.340;2023-02-01T09:17:15;4.78;;;4.50;;
485;SDS011;229;48.734;9.340;2023-02-01T09:19:44;11.77;;;5.40;;
485;SDS011;229;48.734;9.340;2023-02-01T09:22:11;10.10;;;5.43;;
485;SDS011;229;48.734;9.340;2023-02-01T09:24:38;7.15;;;5.60;;
485;SDS011;229;48.734;9.340;2023-02-01T09:27:05;5.95;;;5.65;;
485;SDS011;229;48.734;9.340;2023-02-01T09:29:33;10.35;;;6.75;;
485;SDS011;229;48.734;9.340;2023-02-01T09:32:00;13.75;;;6.10;;
485;SDS011;229;48.734;9.340;2023-02-01T09:34:27;6.78;;;5.30;;
485;SDS011;229;48.734;9.340;2023-02-01T09:36:56;5.20;;;4.90;;
485;SDS011;229;48.734;9.340;2023-02-01T09:39:23;6.25;;;4.65;;
485;SDS011;229;48.734;9.340;2023-02-01T09:41:52;8.80;;;4.25;;
485;SDS011;229;48.734;9.340;2023-02-01T09:44:26;9.98;;;5.05;;
485;SDS011;229;48.734;9.340;2023-02-01T09:47:00;5.20;;;4.72;;
485;SDS011;229;48.734;9.340;2023-02-01T09:49:28;5.68;;;4.45;;
485;SDS011;229;48.734;9.340;2023-02-01T09:51:57;5.35;;;4.30;;
485;SDS011;229;48.734;9.340;2023-02-01T09:54:26;6.95;;;5.25;;
485;SDS011;229;48.734;9.340;2023-02-01T09:56:55;6.10;;;5.63;;
485;SDS011;229;48.734;9.340;2023-02-01T09:59:33;9.48;;;4.40;;
485;SDS011;229;48.734;9.340;2023-02-01T10:02:02;6.55;;;5.05;;
485;SDS011;229;48.734;9.340;2023-02-01T10:04:30;4.80;;;4.50;;
485;SDS011;229;48.734;9.340;2023-02-01T10:07:03;7.22;;;4.30;;
485;SDS011;229;48.734;9.340;2023-02-01T10:09:38;5.85;;;4.68;;
485;SDS011;229;48.734;9.340;2023-02-01T10:12:29;6.32;;;4.22;;
485;SDS011;229;48.734;9.340;2023-02-01T10:15:03;6.22;;;3.90;;
485;SDS011;229;48.734;9.340;2023-02-01T10:17:42;6.00;;;5.15;;
485;SDS011;229;48.734;9.340;2023-02-01T10:20:12;6.63;;;4.55;;
485;SDS011;229;48.734;9.340;2023-02-01T10:22:43;4.93;;;4.70;;
485;SDS011;229;48.734;9.340;2023-02-01T10:25:13;6.50;;;5.30;;
485;SDS011;229;48.734;9.340;2023-02-01T10:27:41;8.80;;;5.55;;
485;SDS011;229;48.734;9.340;2023-02-01T10:30:14;7.53;;;4.90;;
485;SDS011;229;48.734;9.340;2023-02-01T10:32:41;6.97;;;5.70;;
485;SDS011;229;48.734;9.340;2023-02-01T10:35:10;4.90;;;4.60;;
485;SDS011;229;48.734;9.340;2023-02-01T10:37:39;10.30;;;7.03;;
485;SDS011;229;48.734;9.340;2023-02-01T10:40:12;12.27;;;9.20;;
485;SDS011;229;48.734;9.340;2023-02-01T10:42:42;8.98;;;5.55;;
485;SDS011;229;48.734;9.340;2023-02-01T10:45:11;8.68;;;5.78;;
485;SDS011;229;48.734;9.340;2023-02-01T10:47:40;14.35;;;6.28;;
485;SDS011;229;48.734;9.340;2023-02-01T10:50:11;8.82;;;6.03;;
485;SDS011;229;48.734;9.340;2023-02-01T10:52:41;7.68;;;5.78;;
485;SDS011;229;48.734;9.340;2023-02-01T10:55:28;8.00;;;5.32;;
485;SDS011;229;48.734;9.340;2023-02-01T10:57:56;10.73;;;5.80;;
485;SDS011;229;48.734;9.340;2023-02-01T11:00:24;8.30;;;5.50;;
485;SDS011;229;48.734;9.340;2023-02-01T11:02:51;9.40;;;5.85;;
485;SDS011;229;48.734;9.340;2023-02-01T11:05:18;10.05;;;5.63;;
485;SDS011;229;48.734;9.340;2023-02-01T11:07:48;9.27;;;6.85;;
485;SDS011;229;48.734;9.340;2023-02-01T11:12:59;17.30;;;6.22;;
485;SDS011;229;48.734;9.340;2023-02-01T11:15:28;14.10;;;7.40;;
485;SDS011;229;48.734;9.340;2023-02-01T11:17:55;11.68;;;6.10;;
485;SDS011;229;48.734;9.340;2023-02-01T11:20:33;13.05;;;5.90;;
485;SDS011;229;48.734;9.340;2023-02-01T11:23:01;7.75;;;4.85;;
485;SDS011;229;48.734;9.340;2023-02-01T11:25:36;13.38;;;5.35;;
485;SDS011;229;48.734;9.340;2023-02-01T11:28:05;10.10;;;5.50;;
485;SDS011;229;48.734;9.340;2023-02-01T11:30:33;16.92;;;5.97;;
485;SDS011;229;48.734;9.340;2023-02-01T11:33:01;14.75;;;7.10;;
485;SDS011;229;48.734;9.340;2023-02-01T11:35:30;49.25;;;6.65;;
485;SDS011;229;48.734;9.340;2023-02-01T11:37:58;12.05;;;6.00;;
485;SDS011;229;48.734;9.340;2023-02-01T11:40:27;10.52;;;5.53;;
485;SDS011;229;48.734;9.340;2023-02-01T11:42:59;10.45;;;6.50;;
485;SDS011;229;48.734;9.340;2023-02-01T11:45:29;9.75;;;5.13;;
485;SDS011;229;48.734;9.340;2023-02-01T11:47:57;11.88;;;5.13;;
485;SDS011;229;48.734;9.340;2023-02-01T11:50:28;16.20;;;6.32;;
485;SDS011;229;48.734;9.340;2023-02-01T11:53:03;15.02;;;5.30;;
485;SDS011;229;48.734;9.340;2023-02-01T11:55:38;9.32;;;5.15;;
485;SDS011;229;48.734;9.340;2023-02-01T11:58:11;8.77;;;5.47;;
485;SDS011;229;48.734;9.340;2023-02-01T12:00:47;10.88;;;8.65;;
485;SDS011;229;48.734;9.340;2023-02-01T12:05:59;10.55;;;5.72;;
485;SDS011;229;48.734;9.340;2023-02-01T12:11:18;21.20;;;6.30;;
485;SDS011;229;48.734;9.340;2023-02-01T12:13:50;17.38;;;6.53;;
485;SDS011;229;48.734;9.340;2023-02-01T12:16:26;18.98;;;6.35;;
485;SDS011;229;48.734;9.340;2023-02-01T12:19:05;19.15;;;7.00;;
485;SDS011;229;48.734;9.340;2023-02-01T12:21:41;16.98;;;6.90;;
485;SDS011;229;48.734;9.340;2023-02-01T12:27:01;20.70;;;6.30;;
485;SDS011;229;48.734;9.340;2023-02-01T12:29:34;15.05;;;7.47;;
485;SDS011;229;48.734;9.340;2023-02-01T12:37:48;17.65;;;7.75;;
485;SDS011;229;48.734;9.340;2023-02-01T12:40:23;12.88;;;6.40;;
485;SDS011;229;48.734;9.340;2023-02-01T12:42:53;17.10;;;5.68;;
485;SDS011;229;48.734;9.340;2023-02-01T12:45:25;15.35;;;6.60;;
485;SDS011;229;48.734;9.340;2023-02-01T12:47:54;18.23;;;7.05;;
485;SDS011;229;48.734;9.340;2023-02-01T12:50:24;25.42;;;7.30;;
485;SDS011;229;48.734;9.340;2023-02-01T12:52:54;15.75;;;5.85;;
485;SDS011;229;48.734;9.340;2023-02-01T12:55:22;18.40;;;5.72;;
485;SDS011;229;48.734;9.340;2023-02-01T12:57:51;11.75;;;6.68;;
485;SDS011;229;48.734;9.340;2023-02-01T13:00:22;15.73;;;6.68;;
485;SDS011;229;48.734;9.340;2023-02-01T13:02:52;17.15;;;6.60;;
485;SDS011;229;48.734;9.340;2023-02-01T13:05:21;20.75;;;7.43;;
485;SDS011;229;48.734;9.340;2023-02-01T13:07:50;15.38;;;6.00;;
485;SDS011;229;48.734;9.340;2023-02-01T13:10:20;17.58;;;6.10;;
485;SDS011;229;48.734;9.340;2023-02-01T13:12:51;16.23;;;7.00;;
485;SDS011;229;48.734;9.340;2023-02-01T13:15:22;14.40;;;6.40;;
485;SDS011;229;48.734;9.340;2023-02-01T13:17:51;17.20;;;6.22;;
485;SDS011;229;48.734;9.340;2023-02-01T13:20:20;25.60;;;6.80;;
485;SDS011;229;48.734;9.340;2023-02-01T13:22:49;16.73;;;6.53;;
485;SDS011;229;48.734;9.340;2023-02-01T13:25:19;16.15;;;6.65;;
485;SDS011;229;48.734;9.340;2023-02-01T13:27:53;16.88;;;6.18;;
485;SDS011;229;48.734;9.340;2023-02-01T13:30:22;17.90;;;6.53;;
485;SDS011;229;48.734;9.340;2023-02-01T13:32:56;10.13;;;5.65;;
485;SDS011;229;48.734;9.340;2023-02-01T13:35:32;17.73;;;6.18;;
485;SDS011;229;48.734;9.340;2023-02-01T13:38:15;16.38;;;7.00;;
485;SDS011;229;48.734;9.340;2023-02-01T13:40:47;20.25;;;6.63;;
485;SDS011;229;48.734;9.340;2023-02-01T13:43:22;19.23;;;6.40;;
485;SDS011;229;48.734;9.340;2023-02-01T13:45:50;20.17;;;7.28;;
485;SDS011;229;48.734;9.340;2023-02-01T13:48:19;17.92;;;7.03;;
485;SDS011;229;48.734;9.340;2023-02-01T13:50:49;13.35;;;5.80;;
485;SDS011;229;48.734;9.340;2023-02-01T13:53:18;19.85;;;6.30;;
485;SDS011;229;48.734;9.340;2023-02-01T13:55:50;12.48;;;6.25;;
485;SDS011;229;48.734;9.340;2023-02-01T13:58:28;20.27;;;8.63;;
485;SDS011;229;48.734;9.340;2023-02-01T14:03:44;16.60;;;6.30;;
485;SDS011;229;48.734;9.340;2023-02-01T14:06:17;10.40;;;6.05;;
485;SDS011;229;48.734;9.340;2023-02-01T14:08:45;12.80;;;6.70;;
485;SDS011;229;48.734;9.340;2023-02-01T14:22:53;23.25;;;7.32;;
485;SDS011;229;48.734;9.340;2023-02-01T14:25:31;14.70;;;6.85;;
485;SDS011;229;48.734;9.340;2023-02-01T14:27:58;13.45;;;5.55;;
485;SDS011;229;48.734;9.340;2023-02-01T14:30:26;14.88;;;5.57;;
485;SDS011;229;48.734;9.340;2023-02-01T14:32:53;7.10;;;4.93;;
485;SDS011;229;48.734;9.340;2023-02-01T14:35:21;12.95;;;5.30;;
485;SDS011;229;48.734;9.340;2023-02-01T14:37:50;11.05;;;5.50;;
485;SDS011;229;48.734;9.340;2023-02-01T14:40:25;15.27;;;5.85;;
485;SDS011;229;48.734;9.340;2023-02-01T14:42:53;16.95;;;7.18;;
485;SDS011;229;48.734;9.340;2023-02-01T14:50:57;10.30;;;5.82;;
485;SDS011;229;48.734;9.340;2023-02-01T14:53:25;10.27;;;5.70;;
485;SDS011;229;48.734;9.340;2023-02-01T14:55:57;12.65;;;6.05;;
485;SDS011;229;48.734;9.340;2023-02-01T14:58:32;10.25;;;5.82;;
485;SDS011;229;48.734;9.340;2023-02-01T15:01:03;10.63;;;5.65;;
485;SDS011;229;48.734;9.340;2023-02-01T15:06:20;12.93;;;5.45;;
485;SDS011;229;48.734;9.340;2023-02-01T15:08:48;12.20;;;5.90;;
485;SDS011;229;48.734;9.340;2023-02-01T15:11:17;12.25;;;5.35;;
485;SDS011;229;48.734;9.340;2023-02-01T15:13:47;11.48;;;5.03;;
485;SDS011;229;48.734;9.340;2023-02-01T15:16:16;14.20;;;5.43;;
485;SDS011;229;48.734;9.340;2023-02-01T15:18:43;17.38;;;5.70;;
485;SDS011;229;48.734;9.340;2023-02-01T15:21:15;10.13;;;5.03;;
485;SDS011;229;48.734;9.340;2023-02-01T15:23:42;27.10;;;6.43;;
485;SDS011;229;48.734;9.340;2023-02-01T15:26:11;16.77;;;5.22;;
485;SDS011;229;48.734;9.340;2023-02-01T15:28:39;15.63;;;5.45;;
485;SDS011;229;48.734;9.340;2023-02-01T15:31:06;13.98;;;5.75;;
485;SDS011;229;48.734;9.340;2023-02-01T15:33:33;49.33;;;6.45;;
485;SDS011;229;48.734;9.340;2023-02-01T15:36:07;22.27;;;5.93;;
485;SDS011;229;48.734;9.340;2023-02-01T15:38:36;17.45;;;6.03;;
485;SDS011;229;48.734;9.340;2023-02-01T15:41:05;14.57;;;5.60;;
485;SDS011;229;48.734;9.340;2023-02-01T15:43:34;10.15;;;5.57;;
485;SDS011;229;48.734;9.340;2023-02-01T15:46:06;11.02;;;5.00;;
485;SDS011;229;48.734;9.340;2023-02-01T15:48:36;14.55;;;5.15;;
485;SDS011;229;48.734;9.340;2023-02-01T15:51:03;11.35;;;5.10;;
485;SDS011;229;48.734;9.340;2023-02-01T15:53:31;15.90;;;6.32;;
485;SDS011;229;48.734;9.340;2023-02-01T15:55:59;16.63;;;5.95;;
485;SDS011;229;48.734;9.340;2023-02-01T15:58:27;10.60;;;5.40;;
485;SDS011;229;48.734;9.340;2023-02-01T16:00:55;19.63;;;5.50;;
485;SDS011;229;48.734;9.340;2023-02-01T16:03:26;14.45;;;6.00;;
485;SDS011;229;48.734;9.340;2023-02-01T16:05:55;17.15;;;6.15;;
485;SDS011;229;48.734;9.340;2023-02-01T16:08:22;13.18;;;5.78;;
485;SDS011;229;48.734;9.340;2023-02-01T16:10:51;11.65;;;5.15;;
485;SDS011;229;48.734;9.340;2023-02-01T16:13:19;12.75;;;6.25;;
485;SDS011;229;48.734;9.340;2023-02-01T16:15:46;20.83;;;7.13;;
485;SDS011;229;48.734;9.340;2023-02-01T16:18:14;23.33;;;7.03;;
485;SDS011;229;48.734;9.340;2023-02-01T16:20:43;11.82;;;5.65;;
485;SDS011;229;48.734;9.340;2023-02-01T16:23:10;15.93;;;5.70;;
485;SDS011;229;48.734;9.340;2023-02-01T16:25:39;10.27;;;4.80;;
485;SDS011;229;48.734;9.340;2023-02-01T16:28:06;13.23;;;4.90;;
485;SDS011;229;48.734;9.340;2023-02-01T16:30:34;15.82;;;5.72;;
485;SDS011;229;48.734;9.340;2023-02-01T16:33:01;25.17;;;5.00;;
485;SDS011;229;48.734;9.340;2023-02-01T16:35:31;15.60;;;4.85;;
485;SDS011;229;48.734;9.340;2023-02-01T16:38:02;9.23;;;4.85;;